Time,TemperatureF,DewpointF,PressureIn,WindDirection,WindDirectionDegrees,WindSpeedMPH,WindSpeedGustMPH,Humidity,HourlyPrecipIn,Conditions,Clouds,dailyrainin,SoftwareType,DateUTC
2013-06-15 00:00:00,67.3,54.3,30.02,WSW,248,1.0,7.0,63,0.00,,OVC,0.00,VWS V14.01,2013-06-15 04:00:00,
2013-06-15 01:00:00,66.3,54.2,30.03,SW,225,0.0,3.0,65,0.00,,OVC,0.00,VWS V14.01,2013-06-15 05:00:00,
2013-06-15 02:00:00,64.7,53.5,30.04,SW,225,0.0,1.0,67,0.00,,OVC,0.00,VWS V14.01,2013-06-15 06:00:00,
2013-06-15 03:00:00,63.9,52.7,30.03,SW,225,0.0,1.0,67,0.00,,OVC,0.00,VWS V14.01,2013-06-15 07:00:00,
2013-06-15 04:00:00,62.1,52.2,30.02,SW,225,0.0,0.0,70,0.00,,OVC,0.00,VWS V14.01,2013-06-15 08:00:00,
2013-06-15 05:00:00,61.2,53.2,30.03,SW,225,0.0,0.0,75,0.00,,OVC,0.00,VWS V14.01,2013-06-15 09:00:00,
2013-06-15 06:00:00,61.2,52.5,30.07,SW,225,0.0,0.0,73,0.00,,OVC,0.00,VWS V14.01,2013-06-15 10:00:00,
2013-06-15 07:00:00,62.7,53.9,30.08,SW,225,0.0,1.0,73,0.00,,OVC,0.00,VWS V14.01,2013-06-15 11:00:00,
2013-06-15 08:00:00,62.7,56.1,30.09,SW,225,0.0,1.0,79,0.00,,OVC,0.00,VWS V14.01,2013-06-15 12:00:00,
2013-06-15 09:00:00,63.5,56.5,30.11,SW,225,0.0,0.0,78,0.00,,OVC,0.00,VWS V14.01,2013-06-15 13:00:00,
2013-06-15 10:00:00,64.0,59.4,30.11,West,270,0.0,3.0,85,0.07,,OVC,0.07,VWS V14.01,2013-06-15 14:00:00,
2013-06-15 11:00:00,64.7,60.1,30.11,West,270,0.0,2.0,85,0.07,,OVC,0.07,VWS V14.01,2013-06-15 15:00:00,
2013-06-15 12:00:00,68.6,60.4,30.11,WSW,248,0.0,3.0,75,0.00,,OVC,0.07,VWS V14.01,2013-06-15 16:00:00,
2013-06-15 13:00:00,74.0,61.9,30.10,SW,225,0.0,5.0,66,0.00,,OVC,0.07,VWS V14.01,2013-06-15 17:00:00,
2013-06-15 14:00:00,77.2,63.6,30.08,SW,225,0.0,5.0,63,0.00,,OVC,0.07,VWS V14.01,2013-06-15 18:00:00,
2013-06-15 15:00:00,78.1,63.1,30.07,WSW,248,0.0,5.0,60,0.00,,OVC,0.07,VWS V14.01,2013-06-15 19:00:00,
2013-06-15 16:00:00,79.7,64.6,30.06,WSW,248,0.0,4.0,60,0.00,,OVC,0.07,VWS V14.01,2013-06-15 20:00:00,
2013-06-15 17:00:00,79.8,63.2,30.06,WSW,248,0.0,4.0,57,0.00,,OVC,0.07,VWS V14.01,2013-06-15 21:00:00,
2013-06-15 18:00:00,78.6,64.5,30.05,WSW,248,0.0,5.0,62,0.00,,OVC,0.07,VWS V14.01,2013-06-15 22:00:00,
2013-06-15 19:00:00,76.5,63.4,30.04,SW,225,0.0,5.0,64,0.00,,OVC,0.07,VWS V14.01,2013-06-15 23:00:00,
2013-06-15 20:00:00,73.8,62.2,30.06,South,180,0.0,3.0,67,0.00,,OVC,0.07,VWS V14.01,2013-06-16 00:00:00,
2013-06-15 21:00:00,69.6,59.8,30.05,SW,225,0.0,4.0,71,0.00,,OVC,0.07,VWS V14.01,2013-06-16 01:00:00,
2013-06-15 22:00:00,68.4,59.4,30.06,SW,225,0.0,2.0,73,0.00,,OVC,0.07,VWS V14.01,2013-06-16 02:00:00,
2013-06-15 23:00:00,67.9,58.5,30.08,SSW,202,0.0,2.0,72,0.00,,OVC,0.07,VWS V14.01,2013-06-16 03:00:00,